Time;durP1;ratioP1;P1;durP2;ratioP2;P2;SDS_P1;SDS_P2;PMS_P1;PMS_P2;Temp;Humidity;BMP_temperature;BMP_pressure;BME280_temperature;BME280_humidity;BME280_pressure;Samples;Min_cycle;Max_cycle;Signal;HPM_P1;HPM_P2
2022/09/21 00:00:29;;;;;;;;;;;10.60;99.90;;;;;;7341317;19;109219;-85
2022/09/21 00:02:56;;;;;;;;;;;10.60;99.90;;;;;;7342352;19;109335;-85
2022/09/21 00:05:24;;;;;;;;;;;10.60;99.90;;;;;;7339421;19;112253;-85
2022/09/21 00:07:51;;;;;;;;;;;10.60;99.90;;;;;;7344784;19;108449;-84
2022/09/21 00:10:19;;;;;;;;;;;10.50;99.90;;;;;;7341052;19;109184;-85
2022/09/21 00:12:47;;;;;;;;;;;10.50;99.90;;;;;;7342595;19;110250;-85
2022/09/21 00:15:16;;;;;;;;;;;10.40;99.90;;;;;;7342137;19;108419;-85
2022/09/21 00:17:44;;;;;;;;;;;10.40;99.90;;;;;;7348037;19;108652;-84
2022/09/21 00:20:12;;;;;;;;;;;10.40;99.90;;;;;;7342038;19;108846;-85
2022/09/21 00:22:40;;;;;;;;;;;10.40;99.90;;;;;;7343775;19;109101;-85
2022/09/21 00:25:08;;;;;;;;;;;10.40;99.90;;;;;;7341782;19;109189;-85
2022/09/21 00:27:35;;;;;;;;;;;10.40;99.90;;;;;;7340645;19;108652;-85
2022/09/21 00:30:03;;;;;;;;;;;10.40;99.90;;;;;;7342401;19;108240;-85
2022/09/21 00:32:30;;;;;;;;;;;10.30;99.90;;;;;;7342977;19;110247;-85
2022/09/21 00:34:57;;;;;;;;;;;10.20;99.90;;;;;;7343524;19;108570;-86
2022/09/21 00:37:24;;;;;;;;;;;10.20;99.90;;;;;;7341087;19;109445;-85
2022/09/21 00:39:52;;;;;;;;;;;10.20;99.90;;;;;;7344997;19;110793;-85
2022/09/21 00:42:20;;;;;;;;;;;10.20;99.90;;;;;;7338036;19;109180;-84
2022/09/21 00:44:47;;;;;;;;;;;10.20;99.90;;;;;;7343274;19;110474;-85
2022/09/21 00:47:16;;;;;;;;;;;10.20;99.90;;;;;;7344213;19;108591;-85
2022/09/21 00:49:45;;;;;;;;;;;10.20;99.90;;;;;;7340133;19;109358;-85
2022/09/21 00:52:15;;;;;;;;;;;10.10;99.90;;;;;;7341354;19;110267;-85
2022/09/21 00:54:44;;;;;;;;;;;10.20;99.90;;;;;;7340637;19;108935;-85
2022/09/21 00:57:13;;;;;;;;;;;10.10;99.90;;;;;;7341188;19;108666;-85
2022/09/21 00:59:42;;;;;;;;;;;10.10;99.90;;;;;;7342151;19;109246;-85
2022/09/21 01:02:10;;;;;;;;;;;10.10;99.90;;;;;;7346733;19;108504;-85
2022/09/21 01:04:37;;;;;;;;;;;10.00;99.90;;;;;;7341175;19;110223;-85
2022/09/21 01:07:08;;;;;;;;;;;9.90;99.90;;;;;;7341094;19;108845;-85
2022/09/21 01:09:35;;;;;;;;;;;10.00;99.90;;;;;;7339862;19;108380;-85
2022/09/21 01:12:02;;;;;;;;;;;9.90;99.90;;;;;;7339457;19;109154;-85
2022/09/21 01:14:53;;;;;;;;;;;9.90;99.90;;;;;;7340728;19;108758;-85
2022/09/21 01:17:24;;;;;;;;;;;9.90;99.90;;;;;;7338558;19;108948;-85
2022/09/21 01:19:52;;;;;;;;;;;9.80;99.90;;;;;;7341484;19;109973;-85
2022/09/21 01:22:41;;;;;;;;;;;9.80;99.90;;;;;;7344512;19;109343;-85
2022/09/21 01:25:27;;;;;;;;;;;9.70;99.90;;;;;;7339955;19;110347;-86
2022/09/21 01:27:54;;;;;;;;;;;9.70;99.90;;;;;;7341266;19;108522;-85
2022/09/21 01:30:22;;;;;;;;;;;9.70;99.90;;;;;;7340255;19;108600;-85
2022/09/21 01:33:01;;;;;;;;;;;9.70;99.90;;;;;;7342065;19;110286;-85
2022/09/21 01:35:32;;;;;;;;;;;9.70;99.90;;;;;;7338402;19;108405;-85
2022/09/21 01:38:12;;;;;;;;;;;9.70;99.90;;;;;;7340273;19;109155;-85
2022/09/21 01:40:41;;;;;;;;;;;9.60;99.90;;;;;;7339259;19;110226;-85
2022/09/21 01:43:10;;;;;;;;;;;9.70;99.90;;;;;;7340227;19;109013;-84
2022/09/21 01:45:39;;;;;;;;;;;9.70;99.90;;;;;;7346857;19;108566;-85
2022/09/21 01:48:07;;;;;;;;;;;9.70;99.90;;;;;;7339153;19;108507;-86
2022/09/21 01:50:37;;;;;;;;;;;9.60;99.90;;;;;;7339467;19;108269;-85
2022/09/21 01:53:10;;;;;;;;;;;9.60;99.90;;;;;;7339528;19;109333;-85
2022/09/21 01:55:41;;;;;;;;;;;9.60;99.90;;;;;;7342054;19;108498;-85
2022/09/21 01:58:23;;;;;;;;;;;9.60;99.90;;;;;;7339778;19;109288;-85
2022/09/21 02:00:53;;;;;;;;;;;9.60;99.90;;;;;;7341098;19;109636;-86
2022/09/21 02:03:29;;;;;;;;;;;9.50;99.90;;;;;;7341735;19;108404;-85
2022/09/21 02:05:57;;;;;;;;;;;9.50;99.90;;;;;;7340358;19;108727;-85
2022/09/21 02:08:26;;;;;;;;;;;9.40;99.90;;;;;;7345562;19;112948;-85
2022/09/21 02:10:53;;;;;;;;;;;9.40;99.90;;;;;;7337410;19;109424;-85
2022/09/21 02:13:22;;;;;;;;;;;9.40;99.90;;;;;;7338915;19;112151;-85
2022/09/21 02:15:55;;;;;;;;;;;9.40;99.90;;;;;;7340019;19;112077;-84
2022/09/21 02:18:28;;;;;;;;;;;9.40;99.90;;;;;;7341229;19;113041;-85
2022/09/21 02:20:56;;;;;;;;;;;9.40;99.90;;;;;;7340350;19;110676;-85
2022/09/21 02:23:31;;;;;;;;;;;9.40;99.90;;;;;;7340594;19;108704;-85
2022/09/21 02:26:06;;;;;;;;;;;9.40;99.90;;;;;;7339792;19;110905;-85
2022/09/21 02:28:39;;;;;;;;;;;9.40;99.90;;;;;;7339055;19;109303;-85
2022/09/21 02:31:12;;;;;;;;;;;9.30;99.90;;;;;;7344238;19;109492;-84
2022/09/21 02:33:47;;;;;;;;;;;9.30;99.90;;;;;;7339717;19;110195;-84
2022/09/21 02:36:21;;;;;;;;;;;9.30;99.90;;;;;;7339365;19;109120;-85
2022/09/21 02:38:52;;;;;;;;;;;9.20;99.90;;;;;;7341078;19;108330;-85
2022/09/21 02:41:29;;;;;;;;;;;9.20;99.90;;;;;;7339706;19;109821;-85
2022/09/21 02:44:01;;;;;;;;;;;9.30;99.90;;;;;;7340507;19;108699;-85
2022/09/21 02:46:31;;;;;;;;;;;9.30;99.90;;;;;;7339369;19;110932;-85
2022/09/21 02:49:01;;;;;;;;;;;9.20;99.90;;;;;;7341452;19;111734;-85
2022/09/21 02:51:30;;;;;;;;;;;9.20;99.90;;;;;;7341516;19;108668;-85
2022/09/21 02:53:58;;;;;;;;;;;9.20;99.90;;;;;;7345786;19;109140;-85
2022/09/21 02:56:25;;;;;;;;;;;9.20;99.90;;;;;;7339724;19;110588;-84
2022/09/21 02:58:54;;;;;;;;;;;9.20;99.90;;;;;;7338421;19;109117;-84
2022/09/21 03:01:21;;;;;;;;;;;9.20;99.90;;;;;;7336853;19;110185;-84
2022/09/21 03:03:48;;;;;;;;;;;9.10;99.90;;;;;;7336031;19;108526;-84
2022/09/21 03:06:15;;;;;;;;;;;9.10;99.90;;;;;;7337575;19;111969;-84
2022/09/21 03:08:42;;;;;;;;;;;9.10;99.90;;;;;;7338779;19;110253;-84
2022/09/21 03:11:10;;;;;;;;;;;9.10;99.90;;;;;;7338673;19;108278;-84
2022/09/21 03:13:37;;;;;;;;;;;9.00;99.90;;;;;;7343978;19;109206;-84
2022/09/21 03:16:08;;;;;;;;;;;9.00;99.90;;;;;;7339139;19;109796;-84
2022/09/21 03:18:35;;;;;;;;;;;9.00;99.90;;;;;;7340549;19;109593;-84
2022/09/21 03:21:02;;;;;;;;;;;9.00;99.90;;;;;;7338630;19;111780;-84
2022/09/21 03:23:29;;;;;;;;;;;9.00;99.90;;;;;;7340487;19;108698;-84
2022/09/21 03:25:56;;;;;;;;;;;9.00;99.90;;;;;;7339383;19;109116;-84
2022/09/21 03:28:23;;;;;;;;;;;9.00;99.90;;;;;;7336809;19;110254;-84
2022/09/21 03:30:51;;;;;;;;;;;9.00;99.90;;;;;;7341957;19;109248;-84
2022/09/21 03:33:18;;;;;;;;;;;9.00;99.90;;;;;;7345739;19;109619;-83
2022/09/21 03:35:48;;;;;;;;;;;9.00;99.90;;;;;;7351249;19;109366;-84
2022/09/21 03:38:15;;;;;;;;;;;9.00;99.90;;;;;;7346891;19;109202;-83
2022/09/21 03:40:46;;;;;;;;;;;8.90;99.90;;;;;;7350092;19;110806;-84
2022/09/21 03:43:14;;;;;;;;;;;8.90;99.90;;;;;;7351803;19;108939;-84
2022/09/21 03:45:41;;;;;;;;;;;8.90;99.90;;;;;;7348325;19;109140;-84
2022/09/21 03:48:09;;;;;;;;;;;8.90;99.90;;;;;;7348489;19;110289;-84
2022/09/21 03:50:36;;;;;;;;;;;8.90;99.90;;;;;;7346473;19;109691;-84
2022/09/21 03:53:04;;;;;;;;;;;8.80;99.90;;;;;;7348853;19;108542;-84
2022/09/21 03:55:32;;;;;;;;;;;8.80;99.90;;;;;;7345986;19;113260;-83
2022/09/21 03:57:59;;;;;;;;;;;8.90;99.90;;;;;;7350527;19;109187;-84
2022/09/21 04:00:26;;;;;;;;;;;8.90;99.90;;;;;;7342622;19;110200;-84
2022/09/21 04:02:53;;;;;;;;;;;8.90;99.90;;;;;;7345514;19;108612;-84
2022/09/21 04:05:20;;;;;;;;;;;8.90;99.90;;;;;;7344063;19;110513;-84
2022/09/21 04:10:25;;;;;;;;;;;8.80;99.90;;;;;;7343790;19;109410;-84
2022/09/21 04:13:01;;;;;;;;;;;8.90;99.90;;;;;;7343218;19;109552;-84
2022/09/21 04:15:28;;;;;;;;;;;8.80;99.90;;;;;;7342959;19;110493;-84
2022/09/21 04:17:55;;;;;;;;;;;8.80;99.90;;;;;;7343252;19;108452;-84
2022/09/21 04:20:22;;;;;;;;;;;8.70;99.90;;;;;;7348950;19;109071;-84
2022/09/21 04:22:50;;;;;;;;;;;8.70;99.90;;;;;;7343439;19;108284;-83
2022/09/21 04:25:17;;;;;;;;;;;8.70;99.90;;;;;;7342986;19;109434;-83
2022/09/21 04:27:44;;;;;;;;;;;8.70;99.90;;;;;;7341501;19;109707;-83
2022/09/21 04:30:12;;;;;;;;;;;8.70;99.90;;;;;;7340184;19;108374;-84
2022/09/21 04:32:39;;;;;;;;;;;8.60;99.90;;;;;;7344875;19;108463;-84
2022/09/21 04:35:06;;;;;;;;;;;8.60;99.90;;;;;;7342879;19;109168;-83
2022/09/21 04:37:33;;;;;;;;;;;8.60;99.90;;;;;;7342751;19;108784;-85
2022/09/21 04:40:00;;;;;;;;;;;8.60;99.90;;;;;;7342603;19;109156;-84
2022/09/21 04:42:28;;;;;;;;;;;8.60;99.90;;;;;;7346156;19;109159;-81
2022/09/21 04:44:55;;;;;;;;;;;8.60;99.90;;;;;;7344001;19;108465;-82
2022/09/21 04:47:23;;;;;;;;;;;8.70;99.90;;;;;;7340178;19;110461;-83
2022/09/21 04:49:51;;;;;;;;;;;8.70;99.90;;;;;;7343369;19;108410;-85
2022/09/21 04:52:18;;;;;;;;;;;8.70;99.90;;;;;;7339345;19;110471;-83
2022/09/21 04:54:46;;;;;;;;;;;8.70;99.90;;;;;;7340480;19;110233;-83
2022/09/21 04:57:13;;;;;;;;;;;8.70;99.90;;;;;;7341182;19;108969;-81
2022/09/21 04:59:40;;;;;;;;;;;8.70;99.90;;;;;;7342619;19;108205;-83
2022/09/21 05:02:07;;;;;;;;;;;8.70;99.90;;;;;;7341021;19;110387;-83
2022/09/21 05:04:34;;;;;;;;;;;8.70;99.90;;;;;;7346054;19;110556;-83
2022/09/21 05:07:01;;;;;;;;;;;8.70;99.90;;;;;;7341787;19;109718;-83
2022/09/21 05:12:14;;;;;;;;;;;8.70;99.90;;;;;;7340059;19;108432;-81
2022/09/21 05:14:42;;;;;;;;;;;8.60;99.90;;;;;;7341672;19;111440;-81
2022/09/21 05:17:12;;;;;;;;;;;8.60;99.90;;;;;;7343313;19;112401;-83
2022/09/21 05:19:40;;;;;;;;;;;8.60;99.90;;;;;;7341326;19;109243;-83
2022/09/21 05:22:07;;;;;;;;;;;8.60;99.90;;;;;;7339696;19;110375;-83
2022/09/21 05:24:33;;;;;;;;;;;8.50;99.90;;;;;;7349556;19;108937;-84
2022/09/21 05:27:00;;;;;;;;;;;8.50;99.90;;;;;;7344165;19;108982;-83
2022/09/21 05:29:27;;;;;;;;;;;8.50;99.90;;;;;;7344314;19;108616;-84
2022/09/21 05:32:15;;;;;;;;;;;8.50;99.90;;;;;;7341002;19;109311;-83
2022/09/21 05:34:41;;;;;;;;;;;8.50;99.90;;;;;;7339233;19;111993;-82
2022/09/21 05:37:19;;;;;;;;;;;8.50;99.90;;;;;;7337036;19;108790;-85
2022/09/21 05:39:46;;;;;;;;;;;8.50;99.90;;;;;;7340166;19;108486;-83
2022/09/21 05:42:13;;;;;;;;;;;8.50;99.90;;;;;;7339407;19;110364;-83
2022/09/21 05:44:40;;;;;;;;;;;8.40;99.90;;;;;;7339470;19;110029;-84
2022/09/21 05:47:22;;;;;;;;;;;8.40;99.90;;;;;;7344697;19;108712;-83
2022/09/21 05:50:05;;;;;;;;;;;8.50;99.90;;;;;;7340534;19;108844;-83
2022/09/21 05:52:37;;;;;;;;;;;8.50;99.90;;;;;;7341176;19;110041;-83
2022/09/21 05:55:19;;;;;;;;;;;8.50;99.90;;;;;;7337411;19;110532;-83
2022/09/21 05:57:53;;;;;;;;;;;8.50;99.90;;;;;;7339437;19;108462;-83
2022/09/21 06:00:21;;;;;;;;;;;8.50;99.90;;;;;;7339940;19;109304;-83
2022/09/21 06:03:06;;;;;;;;;;;8.50;99.90;;;;;;7338806;19;110262;-83
2022/09/21 06:05:33;;;;;;;;;;;8.60;99.90;;;;;;7339415;19;109627;-83
2022/09/21 06:08:00;;;;;;;;;;;8.60;99.90;;;;;;7340729;19;108815;-83
2022/09/21 06:10:31;;;;;;;;;;;8.70;99.90;;;;;;7343124;19;110123;-81
2022/09/21 06:12:59;;;;;;;;;;;8.80;99.90;;;;;;7332384;19;109116;-85
2022/09/21 06:15:26;;;;;;;;;;;8.90;99.90;;;;;;7338526;19;110429;-84
2022/09/21 06:17:53;;;;;;;;;;;9.00;99.90;;;;;;7334674;19;108739;-85
2022/09/21 06:20:20;;;;;;;;;;;9.10;99.90;;;;;;7335101;19;109237;-80
2022/09/21 06:22:47;;;;;;;;;;;9.10;99.90;;;;;;7335008;19;109535;-81
2022/09/21 06:25:14;;;;;;;;;;;9.20;99.90;;;;;;7338290;19;108676;-82
2022/09/21 06:27:49;;;;;;;;;;;9.20;99.90;;;;;;7333501;19;109664;-82
2022/09/21 06:30:18;;;;;;;;;;;9.30;99.90;;;;;;7333504;19;110294;-82
2022/09/21 06:32:44;;;;;;;;;;;9.40;99.90;;;;;;7342889;19;109343;-82
2022/09/21 06:35:11;;;;;;;;;;;9.50;99.90;;;;;;7336507;19;109255;-82
2022/09/21 06:37:40;;;;;;;;;;;9.50;99.90;;;;;;7339620;19;108557;-82
2022/09/21 06:40:07;;;;;;;;;;;9.60;99.90;;;;;;7340471;19;108644;-81
2022/09/21 06:42:34;;;;;;;;;;;9.70;99.90;;;;;;7338225;19;109241;-82
2022/09/21 06:45:02;;;;;;;;;;;9.80;99.90;;;;;;7337516;19;110880;-83
2022/09/21 06:47:29;;;;;;;;;;;9.90;99.90;;;;;;7336286;19;109249;-75
2022/09/21 06:49:56;;;;;;;;;;;10.00;99.90;;;;;;7337836;19;109647;-76
2022/09/21 06:52:23;;;;;;;;;;;10.00;99.90;;;;;;7336177;19;108617;-75
2022/09/21 06:54:49;;;;;;;;;;;10.10;99.90;;;;;;7343381;19;109538;-76
2022/09/21 06:57:16;;;;;;;;;;;10.20;99.90;;;;;;7336508;19;108660;-74
2022/09/21 06:59:43;;;;;;;;;;;10.30;99.90;;;;;;7336760;19;108601;-76
2022/09/21 07:02:11;;;;;;;;;;;10.40;99.90;;;;;;7335475;19;110057;-74
2022/09/21 07:04:38;;;;;;;;;;;10.50;99.90;;;;;;7336661;19;108518;-74
2022/09/21 07:07:05;;;;;;;;;;;10.60;99.90;;;;;;7334299;19;108702;-76
2022/09/21 07:09:32;;;;;;;;;;;10.70;99.90;;;;;;7338161;19;109352;-74
2022/09/21 07:12:19;;;;;;;;;;;10.90;99.90;;;;;;7334897;19;108324;-77
2022/09/21 07:14:46;;;;;;;;;;;11.00;99.90;;;;;;7335271;19;108924;-74
2022/09/21 07:17:13;;;;;;;;;;;11.10;99.90;;;;;;7347319;19;109500;-76
2022/09/21 07:19:42;;;;;;;;;;;11.20;99.90;;;;;;7343274;19;109237;-76
2022/09/21 07:22:08;;;;;;;;;;;11.40;99.90;;;;;;7344293;19;110406;-76
2022/09/21 07:24:35;;;;;;;;;;;11.40;99.90;;;;;;7345447;19;108465;-75
2022/09/21 07:27:02;;;;;;;;;;;11.50;99.90;;;;;;7342306;19;109391;-76
2022/09/21 07:29:29;;;;;;;;;;;11.70;99.90;;;;;;7345374;19;110420;-76
2022/09/21 07:31:56;;;;;;;;;;;11.80;99.90;;;;;;7340987;19;108649;-74
2022/09/21 07:34:23;;;;;;;;;;;11.90;99.90;;;;;;7343906;19;109516;-74
2022/09/21 07:36:50;;;;;;;;;;;12.10;99.90;;;;;;7349758;19;113091;-74
2022/09/21 07:39:17;;;;;;;;;;;12.30;99.90;;;;;;7343032;19;108599;-73
2022/09/21 07:41:44;;;;;;;;;;;12.40;99.90;;;;;;7344617;19;110233;-74
2022/09/21 07:44:11;;;;;;;;;;;12.50;99.90;;;;;;7344636;19;108475;-74
2022/09/21 07:46:38;;;;;;;;;;;12.60;99.90;;;;;;7343703;19;109643;-74
2022/09/21 07:49:13;;;;;;;;;;;12.70;99.90;;;;;;7344000;19;110958;-73
2022/09/21 07:51:40;;;;;;;;;;;12.80;99.90;;;;;;7343574;19;108419;-73
2022/09/21 07:54:11;;;;;;;;;;;12.90;99.90;;;;;;7344143;19;109462;-73
2022/09/21 07:56:38;;;;;;;;;;;13.10;99.90;;;;;;7342627;19;110419;-74
2022/09/21 07:59:07;;;;;;;;;;;13.30;99.90;;;;;;7347646;19;108622;-73
2022/09/21 08:01:35;;;;;;;;;;;13.40;99.90;;;;;;7342700;19;113392;-74
2022/09/21 08:04:03;;;;;;;;;;;13.50;99.90;;;;;;7340485;19;108551;-73
2022/09/21 08:06:31;;;;;;;;;;;13.50;99.90;;;;;;7343444;19;109153;-73
2022/09/21 08:08:59;;;;;;;;;;;13.50;99.90;;;;;;7341160;19;109379;-74
2022/09/21 08:11:27;;;;;;;;;;;13.50;99.90;;;;;;7338264;19;109378;-73
2022/09/21 08:13:55;;;;;;;;;;;13.60;99.90;;;;;;7340802;19;109157;-73
2022/09/21 08:16:22;;;;;;;;;;;13.70;99.90;;;;;;7341562;19;110201;-73
2022/09/21 08:18:50;;;;;;;;;;;13.80;99.90;;;;;;7342547;19;108916;-74
2022/09/21 08:21:17;;;;;;;;;;;13.90;99.90;;;;;;7348007;19;112402;-73
2022/09/21 08:23:44;;;;;;;;;;;13.90;99.90;;;;;;7342588;19;108689;-74
2022/09/21 08:26:18;;;;;;;;;;;13.90;99.90;;;;;;7340974;19;110554;-73
2022/09/21 08:28:48;;;;;;;;;;;14.00;99.90;;;;;;7342285;19;114109;-73
2022/09/21 08:31:20;;;;;;;;;;;14.10;99.90;;;;;;7344015;19;109103;-73
2022/09/21 08:33:48;;;;;;;;;;;14.20;99.90;;;;;;7343984;19;111192;-73
2022/09/21 08:36:15;;;;;;;;;;;14.20;99.90;;;;;;7341728;19;110466;-73
2022/09/21 08:38:43;;;;;;;;;;;14.30;99.90;;;;;;7342573;19;108911;-73
2022/09/21 08:41:18;;;;;;;;;;;14.40;99.90;;;;;;7341869;19;109584;-73
2022/09/21 08:43:49;;;;;;;;;;;14.50;99.90;;;;;;7346936;19;110080;-74
2022/09/21 08:46:17;;;;;;;;;;;14.70;99.90;;;;;;7343208;19;112593;-74
2022/09/21 08:49:10;;;;;;;;;;;14.70;99.90;;;;;;7338504;19;109515;-74
2022/09/21 08:51:41;;;;;;;;;;;14.80;99.90;;;;;;7340353;19;108647;-74
2022/09/21 08:54:25;;;;;;;;;;;14.90;99.90;;;;;;7340611;19;108592;-74
2022/09/21 08:56:52;;;;;;;;;;;15.10;99.90;;;;;;7341403;19;110291;-74
2022/09/21 08:59:32;;;;;;;;;;;15.20;99.90;;;;;;7340483;19;108702;-75
2022/09/21 09:01:58;;;;;;;;;;;15.20;99.90;;;;;;7343252;19;108962;-74
2022/09/21 09:04:25;;;;;;;;;;;15.10;99.90;;;;;;7340332;19;109765;-74
2022/09/21 09:07:06;;;;;;;;;;;15.20;99.90;;;;;;7345495;19;109553;-74
2022/09/21 09:09:36;;;;;;;;;;;15.30;99.90;;;;;;7339836;19;110051;-74
2022/09/21 09:12:10;;;;;;;;;;;15.30;99.90;;;;;;7339865;19;108696;-74
2022/09/21 09:14:37;;;;;;;;;;;15.40;99.90;;;;;;7342330;19;109525;-75
2022/09/21 09:17:13;;;;;;;;;;;15.50;99.90;;;;;;7339779;19;110006;-74
2022/09/21 09:19:49;;;;;;;;;;;15.50;99.90;;;;;;7340711;19;108857;-74
2022/09/21 09:22:22;;;;;;;;;;;15.50;99.90;;;;;;7341891;19;108735;-74
2022/09/21 09:24:50;;;;;;;;;;;15.60;99.90;;;;;;7341139;19;109768;-74
2022/09/21 09:27:33;;;;;;;;;;;15.60;99.90;;;;;;7339686;19;109272;-75
2022/09/21 09:30:00;;;;;;;;;;;15.80;99.90;;;;;;7347080;19;109774;-74
2022/09/21 09:32:39;;;;;;;;;;;16.00;99.90;;;;;;7339406;19;108641;-75
2022/09/21 09:35:15;;;;;;;;;;;16.10;99.90;;;;;;7338701;19;109404;-75
2022/09/21 09:37:44;;;;;;;;;;;16.30;99.90;;;;;;7338854;19;112003;-75
2022/09/21 09:40:12;;;;;;;;;;;16.40;99.90;;;;;;7339422;19;109066;-75
2022/09/21 09:42:51;;;;;;;;;;;16.40;99.90;;;;;;7340105;19;109248;-75
2022/09/21 09:45:30;;;;;;;;;;;16.50;99.90;;;;;;7340115;19;110640;-74
2022/09/21 09:48:03;;;;;;;;;;;16.60;99.90;;;;;;7339271;19;109313;-74
2022/09/21 09:50:35;;;;;;;;;;;16.80;99.90;;;;;;7344150;19;108566;-75
2022/09/21 09:53:03;;;;;;;;;;;16.80;99.90;;;;;;7339622;19;108681;-74
2022/09/21 09:55:42;;;;;;;;;;;16.90;99.90;;;;;;7341315;19;108789;-75
2022/09/21 09:58:16;;;;;;;;;;;17.00;99.90;;;;;;7339293;19;110384;-78
2022/09/21 10:00:44;;;;;;;;;;;17.00;99.90;;;;;;7342266;19;108711;-78
2022/09/21 10:03:16;;;;;;;;;;;17.00;99.90;;;;;;7338658;19;109040;-79
2022/09/21 10:05:43;;;;;;;;;;;17.10;99.90;;;;;;7339774;19;110243;-77
2022/09/21 10:08:29;;;;;;;;;;;17.00;99.90;;;;;;7341227;19;110782;-80
2022/09/21 10:10:56;;;;;;;;;;;17.00;99.90;;;;;;7338792;19;110178;-78
2022/09/21 10:13:29;;;;;;;;;;;17.00;99.90;;;;;;7342679;19;109276;-76
2022/09/21 10:15:56;;;;;;;;;;;17.10;99.90;;;;;;7340815;19;110321;-75
2022/09/21 10:18:41;;;;;;;;;;;17.30;99.90;;;;;;7337384;19;112644;-78
2022/09/21 10:21:14;;;;;;;;;;;17.40;99.90;;;;;;7339379;19;108850;-75
2022/09/21 10:23:45;;;;;;;;;;;17.40;99.90;;;;;;7337885;19;109350;-74
2022/09/21 10:26:12;;;;;;;;;;;17.40;99.90;;;;;;7331055;19;110245;-74
2022/09/21 10:28:54;;;;;;;;;;;17.30;99.90;;;;;;7336633;19;111873;-75
2022/09/21 10:31:22;;;;;;;;;;;17.20;99.90;;;;;;7334142;19;108883;-74
2022/09/21 10:33:52;;;;;;;;;;;17.20;99.90;;;;;;7333652;19;109278;-74
2022/09/21 10:36:26;;;;;;;;;;;17.30;99.90;;;;;;7338671;19;109336;-74
2022/09/21 10:38:53;;;;;;;;;;;17.40;99.90;;;;;;7334035;19;110281;-74
2022/09/21 10:43:54;;;;;;;;;;;17.40;99.90;;;;;;7332953;19;110154;-74
2022/09/21 10:46:31;;;;;;;;;;;17.50;99.90;;;;;;7332957;19;109368;-74
2022/09/21 10:48:59;;;;;;;;;;;17.50;99.90;;;;;;7334700;19;108869;-74
2022/09/21 10:51:28;;;;;;;;;;;17.50;99.90;;;;;;7340125;19;108856;-74
2022/09/21 10:53:55;;;;;;;;;;;17.40;99.90;;;;;;7341632;19;110627;-74
2022/09/21 10:56:22;;;;;;;;;;;17.40;99.90;;;;;;7340272;19;108703;-75
2022/09/21 10:59:08;;;;;;;;;;;17.50;99.90;;;;;;7347032;19;109574;-74
2022/09/21 11:01:34;;;;;;;;;;;17.70;99.90;;;;;;7342319;19;108423;-74
2022/09/21 11:04:07;;;;;;;;;;;17.70;99.90;;;;;;7341768;19;109124;-74
2022/09/21 11:06:38;;;;;;;;;;;17.80;99.90;;;;;;7340104;19;111387;-74
2022/09/21 11:09:13;;;;;;;;;;;17.70;99.90;;;;;;7340053;19;110209;-74
2022/09/21 11:11:58;;;;;;;;;;;17.70;99.90;;;;;;7340082;19;110203;-75
2022/09/21 11:14:43;;;;;;;;;;;17.70;99.90;;;;;;7340725;19;109549;-74
2022/09/21 11:17:29;;;;;;;;;;;17.70;99.90;;;;;;7340714;19;108695;-75
2022/09/21 11:19:59;;;;;;;;;;;17.60;99.90;;;;;;7339532;19;108643;-74
2022/09/21 11:22:44;;;;;;;;;;;17.60;99.90;;;;;;7341804;19;113484;-73
2022/09/21 11:25:31;;;;;;;;;;;17.70;99.90;;;;;;7339286;19;108814;-75
2022/09/21 11:28:01;;;;;;;;;;;17.90;99.90;;;;;;7342432;19;110411;-75
2022/09/21 11:30:32;;;;;;;;;;;18.20;99.90;;;;;;7341404;19;108965;-76
2022/09/21 11:33:11;;;;;;;;;;;18.40;99.90;;;;;;7341730;19;110452;-75
2022/09/21 11:35:39;;;;;;;;;;;18.50;99.90;;;;;;7341945;19;108995;-74
2022/09/21 11:38:06;;;;;;;;;;;18.70;99.90;;;;;;7339428;19;109310;-74
2022/09/21 11:40:36;;;;;;;;;;;18.90;99.90;;;;;;7340320;19;109753;-75
2022/09/21 11:43:03;;;;;;;;;;;19.00;99.20;;;;;;7341828;19;110056;-75
2022/09/21 11:45:39;;;;;;;;;;;19.00;99.10;;;;;;7344507;19;108778;-75
2022/09/21 11:48:09;;;;;;;;;;;18.90;99.20;;;;;;7341088;19;109290;-75
2022/09/21 11:50:55;;;;;;;;;;;18.90;98.90;;;;;;7341583;19;109622;-75
2022/09/21 11:53:22;;;;;;;;;;;19.00;99.90;;;;;;7331406;19;111826;-75
2022/09/21 11:55:54;;;;;;;;;;;19.10;99.90;;;;;;7328803;19;113684;-75
2022/09/21 11:58:27;;;;;;;;;;;19.10;99.20;;;;;;7327844;19;108942;-74
2022/09/21 12:00:57;;;;;;;;;;;18.90;98.70;;;;;;7329375;19;109210;-75
2022/09/21 12:03:37;;;;;;;;;;;18.90;98.50;;;;;;7330356;19;111513;-75
2022/09/21 12:06:22;;;;;;;;;;;18.80;99.70;;;;;;7337531;19;108692;-75
2022/09/21 12:09:12;;;;;;;;;;;18.90;99.60;;;;;;7332988;19;109424;-75
2022/09/21 12:11:47;;;;;;;;;;;18.90;99.30;;;;;;7334674;19;108978;-75
2022/09/21 12:14:17;;;;;;;;;;;18.90;98.50;;;;;;7333861;19;109915;-75
2022/09/21 12:17:01;;;;;;;;;;;18.90;99.20;;;;;;7334783;19;109472;-74
2022/09/21 12:19:39;;;;;;;;;;;18.90;98.80;;;;;;7339602;19;111809;-75
2022/09/21 12:22:16;;;;;;;;;;;18.90;98.70;;;;;;7340867;19;108913;-75
2022/09/21 12:24:45;;;;;;;;;;;18.90;99.40;;;;;;7340319;19;111591;-75
2022/09/21 12:27:24;;;;;;;;;;;19.00;99.90;;;;;;7341069;19;108982;-75
2022/09/21 12:29:52;;;;;;;;;;;19.00;98.30;;;;;;7342181;19;109421;-80
2022/09/21 12:32:19;;;;;;;;;;;19.10;99.00;;;;;;7337378;19;111459;-80
2022/09/21 12:34:50;;;;;;;;;;;19.30;99.40;;;;;;7338400;19;108748;-80
2022/09/21 12:37:19;;;;;;;;;;;19.50;99.80;;;;;;7338054;19;113126;-80
2022/09/21 12:39:55;;;;;;;;;;;19.40;97.00;;;;;;7335238;19;108965;-80
2022/09/21 12:42:26;;;;;;;;;;;19.20;97.30;;;;;;7337953;19;110327;-80
2022/09/21 12:45:05;;;;;;;;;;;19.10;97.10;;;;;;7338854;19;110263;-79
2022/09/21 12:47:50;;;;;;;;;;;19.00;98.00;;;;;;7340410;19;109588;-79
2022/09/21 12:50:24;;;;;;;;;;;19.10;98.60;;;;;;7335355;19;109275;-80
2022/09/21 12:52:51;;;;;;;;;;;19.10;99.40;;;;;;7343263;19;111629;-80
2022/09/21 12:55:50;;;;;;;;;;;19.10;99.20;;;;;;7337188;19;109697;-79
2022/09/21 12:58:26;;;;;;;;;;;19.10;99.00;;;;;;7333776;19;110899;-79
2022/09/21 13:01:16;;;;;;;;;;;19.10;99.50;;;;;;7333984;19;109226;-80
2022/09/21 13:03:51;;;;;;;;;;;19.10;99.00;;;;;;7334096;19;108875;-79
2022/09/21 13:06:36;;;;;;;;;;;19.20;99.40;;;;;;7332767;19;110077;-79
2022/09/21 13:09:05;;;;;;;;;;;19.10;98.20;;;;;;7332022;19;109101;-79
2022/09/21 13:11:48;;;;;;;;;;;19.10;99.80;;;;;;7334394;19;109102;-79
2022/09/21 13:14:17;;;;;;;;;;;19.20;99.00;;;;;;7330131;19;110658;-81
2022/09/21 13:16:51;;;;;;;;;;;19.20;98.90;;;;;;7338980;19;109455;-80
2022/09/21 13:19:20;;;;;;;;;;;19.20;97.00;;;;;;7332263;19;109524;-79
2022/09/21 13:22:06;;;;;;;;;;;19.20;97.90;;;;;;7332657;19;110635;-80
2022/09/21 13:24:33;;;;;;;;;;;19.40;97.80;;;;;;7334152;19;109257;-79
2022/09/21 13:27:05;;;;;;;;;;;19.50;98.70;;;;;;7331715;19;110237;-79
2022/09/21 13:29:34;;;;;;;;;;;19.80;98.40;;;;;;7332571;19;110550;-81
2022/09/21 13:32:02;;;;;;;;;;;20.00;96.20;;;;;;7332168;19;109038;-79
2022/09/21 13:34:34;;;;;;;;;;;20.20;98.00;;;;;;7335626;19;111049;-79
2022/09/21 13:37:10;;;;;;;;;;;20.60;95.60;;;;;;7336737;19;109819;-79
2022/09/21 13:39:49;;;;;;;;;;;20.70;95.60;;;;;;7341361;19;110101;-78
2022/09/21 13:42:31;;;;;;;;;;;20.90;97.20;;;;;;7336210;19;108477;-78
2022/09/21 13:45:03;;;;;;;;;;;21.20;96.00;;;;;;7336844;19;108364;-78
2022/09/21 13:47:31;;;;;;;;;;;21.50;96.40;;;;;;7336518;19;110805;-80
2022/09/21 13:50:09;;;;;;;;;;;21.80;94.80;;;;;;7336620;19;109279;-79
2022/09/21 13:52:39;;;;;;;;;;;21.90;95.40;;;;;;7334640;19;110181;-78
2022/09/21 13:55:16;;;;;;;;;;;21.90;93.60;;;;;;7334425;19;109533;-81
2022/09/21 13:57:45;;;;;;;;;;;21.90;94.00;;;;;;7337578;19;108430;-79
2022/09/21 14:00:12;;;;;;;;;;;22.10;95.10;;;;;;7343084;19;109188;-79
2022/09/21 14:02:40;;;;;;;;;;;22.40;93.50;;;;;;7338075;19;108780;-79
2022/09/21 14:05:18;;;;;;;;;;;22.60;92.60;;;;;;7336686;19;111596;-80
2022/09/21 14:07:45;;;;;;;;;;;22.60;92.80;;;;;;7334448;19;110287;-78
2022/09/21 14:10:17;;;;;;;;;;;22.60;91.20;;;;;;7335696;19;108917;-78
2022/09/21 14:12:44;;;;;;;;;;;22.80;92.70;;;;;;7335646;19;108680;-78
2022/09/21 14:15:20;;;;;;;;;;;22.80;92.00;;;;;;7333129;19;112492;-79
2022/09/21 14:18:06;;;;;;;;;;;22.60;92.20;;;;;;7336605;19;108892;-79
2022/09/21 14:20:36;;;;;;;;;;;22.50;92.60;;;;;;7334768;19;108967;-79
2022/09/21 14:23:15;;;;;;;;;;;22.50;93.70;;;;;;7339966;19;110238;-79
2022/09/21 14:26:08;;;;;;;;;;;22.20;90.30;;;;;;7335363;19;108738;-80
2022/09/21 14:28:40;;;;;;;;;;;21.90;92.00;;;;;;7332193;19;110036;-80
2022/09/21 14:31:13;;;;;;;;;;;21.70;92.10;;;;;;7333685;19;110745;-80
2022/09/21 14:33:45;;;;;;;;;;;21.70;92.50;;;;;;7333705;19;109672;-79
2022/09/21 14:36:15;;;;;;;;;;;21.60;93.20;;;;;;7334966;19;109730;-79
2022/09/21 14:38:53;;;;;;;;;;;21.60;93.50;;;;;;7332099;19;108711;-80